sensor_id;sensor_type;location;lat;lon;timestamp;pressure;altitude;pressure_sealevel;temperature;humidity
73941;BME280;62294;48.554;10.202;2023-02-01T00:00:23;96703.94;;;0.28;100.00
73941;BME280;62294;48.554;10.202;2023-02-01T00:02:50;96692.38;;;0.31;100.00
73941;BME280;62294;48.554;10.202;2023-02-01T00:05:16;96687.00;;;0.32;100.00
73941;BME280;62294;48.554;10.202;2023-02-01T00:07:46;96686.56;;;0.37;100.00
73941;BME280;62294;48.554;10.202;2023-02-01T00:10:13;96682.72;;;0.41;100.00
73941;BME280;62294;48.554;10.202;2023-02-01T00:12:40;96665.09;;;0.43;100.00
73941;BME280;62294;48.554;10.202;2023-02-01T00:15:06;96667.56;;;0.44;100.00
73941;BME280;62294;48.554;10.202;2023-02-01T00:17:33;96670.59;;;0.49;100.00
73941;BME280;62294;48.554;10.202;2023-02-01T00:20:00;96675.53;;;0.52;100.00
73941;BME280;62294;48.554;10.202;2023-02-01T00:22:26;96674.13;;;0.58;100.00
73941;BME280;62294;48.554;10.202;2023-02-01T00:24:52;96667.78;;;0.60;100.00
73941;BME280;62294;48.554;10.202;2023-02-01T00:27:19;96672.88;;;0.62;100.00
73941;BME280;62294;48.554;10.202;2023-02-01T00:29:47;96666.69;;;0.63;100.00
73941;BME280;62294;48.554;10.202;2023-02-01T00:32:14;96671.75;;;0.64;100.00
73941;BME280;62294;48.554;10.202;2023-02-01T00:34:41;96662.81;;;0.67;100.00
73941;BME280;62294;48.554;10.202;2023-02-01T00:37:07;96665.28;;;0.68;100.00
73941;BME280;62294;48.554;10.202;2023-02-01T00:39:34;96663.38;;;0.70;100.00
73941;BME280;62294;48.554;10.202;2023-02-01T00:42:01;96659.91;;;0.70;100.00
73941;BME280;62294;48.554;10.202;2023-02-01T00:44:28;96659.75;;;0.71;100.00
73941;BME280;62294;48.554;10.202;2023-02-01T00:46:59;96658.94;;;0.71;100.00
73941;BME280;62294;48.554;10.202;2023-02-01T00:49:27;96654.69;;;0.70;100.00
73941;BME280;62294;48.554;10.202;2023-02-01T00:51:53;96650.81;;;0.74;100.00
73941;BME280;62294;48.554;10.202;2023-02-01T00:54:19;96649.84;;;0.75;100.00
73941;BME280;62294;48.554;10.202;2023-02-01T00:56:46;96642.69;;;0.77;100.00
73941;BME280;62294;48.554;10.202;2023-02-01T00:59:13;96650.53;;;0.77;100.00
73941;BME280;62294;48.554;10.202;2023-02-01T01:01:39;96649.84;;;0.75;100.00
73941;BME280;62294;48.554;10.202;2023-02-01T01:04:06;96658.38;;;0.77;100.00
73941;BME280;62294;48.554;10.202;2023-02-01T01:06:33;96654.78;;;0.78;100.00
73941;BME280;62294;48.554;10.202;2023-02-01T01:09:04;96650.94;;;0.82;100.00
73941;BME280;62294;48.554;10.202;2023-02-01T01:11:35;96655.84;;;0.85;100.00
73941;BME280;62294;48.554;10.202;2023-02-01T01:14:01;96648.41;;;0.90;100.00
73941;BME280;62294;48.554;10.202;2023-02-01T01:16:29;96645.50;;;0.93;100.00
73941;BME280;62294;48.554;10.202;2023-02-01T01:18:57;96636.38;;;0.97;100.00
73941;BME280;62294;48.554;10.202;2023-02-01T01:21:24;96623.28;;;0.97;100.00
73941;BME280;62294;48.554;10.202;2023-02-01T01:23:51;96626.31;;;1.02;100.00
73941;BME280;62294;48.554;10.202;2023-02-01T01:26:21;96621.06;;;1.02;100.00
73941;BME280;62294;48.554;10.202;2023-02-01T01:28:49;96622.69;;;1.03;100.00
73941;BME280;62294;48.554;10.202;2023-02-01T01:31:19;96622.13;;;1.09;100.00
73941;BME280;62294;48.554;10.202;2023-02-01T01:33:53;96624.88;;;1.08;100.00
73941;BME280;62294;48.554;10.202;2023-02-01T01:36:21;96630.34;;;1.14;100.00
73941;BME280;62294;48.554;10.202;2023-02-01T01:38:47;96624.31;;;1.14;100.00
73941;BME280;62294;48.554;10.202;2023-02-01T01:41:26;96614.78;;;1.13;100.00
73941;BME280;62294;48.554;10.202;2023-02-01T01:44:01;96612.84;;;1.15;100.00
73941;BME280;62294;48.554;10.202;2023-02-01T01:46:30;96608.59;;;1.14;100.00
73941;BME280;62294;48.554;10.202;2023-02-01T01:49:14;96605.53;;;1.18;100.00
73941;BME280;62294;48.554;10.202;2023-02-01T01:51:50;96606.00;;;1.14;100.00
73941;BME280;62294;48.554;10.202;2023-02-01T01:54:33;96611.84;;;1.25;100.00
73941;BME280;62294;48.554;10.202;2023-02-01T01:57:04;96606.81;;;1.32;100.00
73941;BME280;62294;48.554;10.202;2023-02-01T01:59:35;96609.00;;;1.36;100.00
73941;BME280;62294;48.554;10.202;2023-02-01T02:02:02;96615.59;;;1.40;100.00
73941;BME280;62294;48.554;10.202;2023-02-01T02:04:29;96617.69;;;1.55;100.00
73941;BME280;62294;48.554;10.202;2023-02-01T02:07:00;96621.88;;;1.48;100.00
73941;BME280;62294;48.554;10.202;2023-02-01T02:09:28;96625.16;;;1.50;100.00
73941;BME280;62294;48.554;10.202;2023-02-01T02:11:55;96626.13;;;1.49;100.00
73941;BME280;62294;48.554;10.202;2023-02-01T02:14:23;96610.41;;;1.49;100.00
73941;BME280;62294;48.554;10.202;2023-02-01T02:20:27;96589.25;;;1.60;100.00
73941;BME280;62294;48.554;10.202;2023-02-01T02:23:16;96596.56;;;1.56;100.00
73941;BME280;62294;48.554;10.202;2023-02-01T02:25:58;96604.66;;;1.63;100.00
73941;BME280;62294;48.554;10.202;2023-02-01T02:36:58;96594.50;;;1.60;100.00
73941;BME280;62294;48.554;10.202;2023-02-01T02:45:25;96584.72;;;1.70;100.00
73941;BME280;62294;48.554;10.202;2023-02-01T02:48:28;96581.44;;;1.68;100.00
73941;BME280;62294;48.554;10.202;2023-02-01T02:51:11;96583.75;;;1.53;100.00
73941;BME280;62294;48.554;10.202;2023-02-01T02:56:46;96577.13;;;1.59;100.00
73941;BME280;62294;48.554;10.202;2023-02-01T02:59:34;96572.31;;;1.54;100.00
73941;BME280;62294;48.554;10.202;2023-02-01T03:02:21;96563.81;;;1.52;100.00
73941;BME280;62294;48.554;10.202;2023-02-01T03:05:06;96562.59;;;1.47;100.00
73941;BME280;62294;48.554;10.202;2023-02-01T03:08:03;96576.34;;;1.49;100.00
73941;BME280;62294;48.554;10.202;2023-02-01T03:10:42;96566.34;;;1.44;100.00
73941;BME280;62294;48.554;10.202;2023-02-01T03:16:07;96573.69;;;1.40;100.00
73941;BME280;62294;48.554;10.202;2023-02-01T03:18:56;96568.44;;;1.40;100.00
73941;BME280;62294;48.554;10.202;2023-02-01T03:21:27;96564.47;;;1.54;100.00
73941;BME280;62294;48.554;10.202;2023-02-01T03:24:00;96569.09;;;1.78;100.00
73941;BME280;62294;48.554;10.202;2023-02-01T03:26:30;96566.16;;;1.81;100.00
73941;BME280;62294;48.554;10.202;2023-02-01T03:29:05;96568.09;;;1.79;100.00
73941;BME280;62294;48.554;10.202;2023-02-01T03:31:34;96561.56;;;1.83;100.00
73941;BME280;62294;48.554;10.202;2023-02-01T03:34:01;96560.31;;;1.87;100.00
73941;BME280;62294;48.554;10.202;2023-02-01T03:36:35;96563.28;;;1.92;100.00
73941;BME280;62294;48.554;10.202;2023-02-01T03:39:15;96567.72;;;1.91;100.00
73941;BME280;62294;48.554;10.202;2023-02-01T03:41:50;96561.94;;;1.88;100.00
73941;BME280;62294;48.554;10.202;2023-02-01T03:46:58;96557.38;;;1.90;100.00
73941;BME280;62294;48.554;10.202;2023-02-01T03:49:37;96562.72;;;2.06;100.00
73941;BME280;62294;48.554;10.202;2023-02-01T03:52:07;96550.53;;;1.97;100.00
73941;BME280;62294;48.554;10.202;2023-02-01T03:54:37;96551.31;;;1.89;100.00
73941;BME280;62294;48.554;10.202;2023-02-01T03:57:07;96557.31;;;1.82;100.00
73941;BME280;62294;48.554;10.202;2023-02-01T03:59:39;96553.56;;;1.84;100.00
73941;BME280;62294;48.554;10.202;2023-02-01T04:02:07;96559.78;;;1.83;100.00
73941;BME280;62294;48.554;10.202;2023-02-01T04:04:34;96558.94;;;1.83;100.00
73941;BME280;62294;48.554;10.202;2023-02-01T04:07:01;96559.06;;;1.73;100.00
73941;BME280;62294;48.554;10.202;2023-02-01T04:09:27;96556.50;;;1.81;100.00
73941;BME280;62294;48.554;10.202;2023-02-01T04:11:54;96550.13;;;1.84;100.00
73941;BME280;62294;48.554;10.202;2023-02-01T04:14:20;96548.34;;;1.67;100.00
73941;BME280;62294;48.554;10.202;2023-02-01T04:16:47;96551.75;;;1.59;100.00
73941;BME280;62294;48.554;10.202;2023-02-01T04:19:14;96555.84;;;1.62;100.00
73941;BME280;62294;48.554;10.202;2023-02-01T04:21:41;96550.97;;;1.67;100.00
73941;BME280;62294;48.554;10.202;2023-02-01T04:24:07;96533.31;;;1.51;100.00
73941;BME280;62294;48.554;10.202;2023-02-01T04:26:34;96530.72;;;1.33;100.00
73941;BME280;62294;48.554;10.202;2023-02-01T04:29:01;96535.31;;;1.14;100.00
73941;BME280;62294;48.554;10.202;2023-02-01T04:31:28;96556.88;;;0.98;100.00
73941;BME280;62294;48.554;10.202;2023-02-01T04:33:55;96542.22;;;0.88;100.00
73941;BME280;62294;48.554;10.202;2023-02-01T04:36:24;96543.25;;;0.77;100.00
73941;BME280;62294;48.554;10.202;2023-02-01T04:38:51;96552.31;;;0.83;100.00
73941;BME280;62294;48.554;10.202;2023-02-01T04:41:18;96547.50;;;0.78;100.00
73941;BME280;62294;48.554;10.202;2023-02-01T04:43:46;96538.09;;;0.85;100.00
73941;BME280;62294;48.554;10.202;2023-02-01T04:46:13;96538.41;;;0.82;100.00
73941;BME280;62294;48.554;10.202;2023-02-01T04:48:40;96531.25;;;0.84;100.00
73941;BME280;62294;48.554;10.202;2023-02-01T04:51:08;96532.59;;;0.88;100.00
73941;BME280;62294;48.554;10.202;2023-02-01T04:53:36;96525.34;;;1.00;100.00
73941;BME280;62294;48.554;10.202;2023-02-01T04:56:02;96538.06;;;1.12;100.00
73941;BME280;62294;48.554;10.202;2023-02-01T04:58:29;96533.97;;;1.27;100.00
73941;BME280;62294;48.554;10.202;2023-02-01T05:00:56;96536.25;;;1.30;100.00
73941;BME280;62294;48.554;10.202;2023-02-01T05:03:22;96539.47;;;1.24;100.00
73941;BME280;62294;48.554;10.202;2023-02-01T05:05:49;96539.09;;;1.19;100.00
73941;BME280;62294;48.554;10.202;2023-02-01T05:08:16;96542.16;;;1.15;100.00
73941;BME280;62294;48.554;10.202;2023-02-01T05:10:42;96524.00;;;1.13;100.00
73941;BME280;62294;48.554;10.202;2023-02-01T05:13:11;96533.66;;;1.13;100.00
73941;BME280;62294;48.554;10.202;2023-02-01T05:15:56;96515.47;;;1.11;100.00
73941;BME280;62294;48.554;10.202;2023-02-01T05:18:23;96519.06;;;1.10;100.00
73941;BME280;62294;48.554;10.202;2023-02-01T05:20:49;96521.00;;;1.08;100.00
73941;BME280;62294;48.554;10.202;2023-02-01T05:23:16;96517.72;;;1.06;100.00
73941;BME280;62294;48.554;10.202;2023-02-01T05:25:42;96518.84;;;1.04;100.00
73941;BME280;62294;48.554;10.202;2023-02-01T05:28:09;96523.91;;;1.05;100.00
73941;BME280;62294;48.554;10.202;2023-02-01T05:30:35;96512.56;;;0.97;100.00
73941;BME280;62294;48.554;10.202;2023-02-01T05:33:03;96512.56;;;0.97;100.00
73941;BME280;62294;48.554;10.202;2023-02-01T05:35:30;96517.78;;;0.97;100.00
73941;BME280;62294;48.554;10.202;2023-02-01T05:37:56;96522.50;;;0.93;100.00
73941;BME280;62294;48.554;10.202;2023-02-01T05:40:23;96516.94;;;0.96;100.00
73941;BME280;62294;48.554;10.202;2023-02-01T05:42:50;96528.69;;;0.92;100.00
73941;BME280;62294;48.554;10.202;2023-02-01T05:45:16;96541.50;;;0.95;100.00
73941;BME280;62294;48.554;10.202;2023-02-01T05:47:44;96543.72;;;0.90;100.00
73941;BME280;62294;48.554;10.202;2023-02-01T05:50:10;96547.84;;;0.93;100.00
73941;BME280;62294;48.554;10.202;2023-02-01T05:52:36;96531.31;;;0.92;100.00
73941;BME280;62294;48.554;10.202;2023-02-01T05:55:03;96533.25;;;0.90;100.00
73941;BME280;62294;48.554;10.202;2023-02-01T05:57:30;96541.78;;;0.92;100.00
73941;BME280;62294;48.554;10.202;2023-02-01T05:59:56;96528.91;;;0.99;100.00
73941;BME280;62294;48.554;10.202;2023-02-01T06:02:25;96532.66;;;0.96;100.00
73941;BME280;62294;48.554;10.202;2023-02-01T06:04:51;96527.13;;;0.99;100.00
73941;BME280;62294;48.554;10.202;2023-02-01T06:07:18;96520.25;;;0.98;100.00
73941;BME280;62294;48.554;10.202;2023-02-01T06:09:45;96514.06;;;0.99;100.00
73941;BME280;62294;48.554;10.202;2023-02-01T06:12:11;96518.63;;;0.97;100.00
73941;BME280;62294;48.554;10.202;2023-02-01T06:14:38;96525.25;;;0.92;100.00
73941;BME280;62294;48.554;10.202;2023-02-01T06:17:05;96517.28;;;0.93;100.00
73941;BME280;62294;48.554;10.202;2023-02-01T06:19:32;96531.91;;;0.86;100.00
73941;BME280;62294;48.554;10.202;2023-02-01T06:21:58;96546.19;;;0.92;100.00
73941;BME280;62294;48.554;10.202;2023-02-01T06:24:25;96532.53;;;0.98;100.00
73941;BME280;62294;48.554;10.202;2023-02-01T06:26:52;96535.50;;;1.03;100.00
73941;BME280;62294;48.554;10.202;2023-02-01T06:29:18;96546.97;;;1.02;100.00
73941;BME280;62294;48.554;10.202;2023-02-01T06:31:45;96532.09;;;1.02;100.00
73941;BME280;62294;48.554;10.202;2023-02-01T06:34:12;96526.84;;;1.02;100.00
73941;BME280;62294;48.554;10.202;2023-02-01T06:36:38;96525.47;;;0.98;100.00
73941;BME280;62294;48.554;10.202;2023-02-01T06:39:05;96520.56;;;0.95;100.00
73941;BME280;62294;48.554;10.202;2023-02-01T06:41:31;96525.78;;;0.95;100.00
73941;BME280;62294;48.554;10.202;2023-02-01T06:44:00;96518.91;;;0.94;100.00
73941;BME280;62294;48.554;10.202;2023-02-01T06:46:27;96528.69;;;0.92;100.00
73941;BME280;62294;48.554;10.202;2023-02-01T06:48:54;96530.34;;;0.93;100.00
73941;BME280;62294;48.554;10.202;2023-02-01T06:51:25;96515.00;;;0.98;100.00
73941;BME280;62294;48.554;10.202;2023-02-01T06:53:52;96523.84;;;0.97;100.00
73941;BME280;62294;48.554;10.202;2023-02-01T06:56:18;96531.03;;;0.95;100.00
73941;BME280;62294;48.554;10.202;2023-02-01T06:58:46;96526.63;;;0.96;100.00
73941;BME280;62294;48.554;10.202;2023-02-01T07:01:13;96524.13;;;0.94;100.00
73941;BME280;62294;48.554;10.202;2023-02-01T07:03:40;96530.88;;;0.97;100.00
73941;BME280;62294;48.554;10.202;2023-02-01T07:06:07;96522.72;;;1.00;100.00
73941;BME280;62294;48.554;10.202;2023-02-01T07:08:36;96526.84;;;1.02;100.00
73941;BME280;62294;48.554;10.202;2023-02-01T07:11:05;96530.25;;;1.03;100.00
73941;BME280;62294;48.554;10.202;2023-02-01T07:13:32;96537.59;;;0.99;100.00
73941;BME280;62294;48.554;10.202;2023-02-01T07:16:01;96533.88;;;1.02;100.00
73941;BME280;62294;48.554;10.202;2023-02-01T07:18:28;96536.31;;;1.03;100.00
73941;BME280;62294;48.554;10.202;2023-02-01T07:20:55;96544.19;;;1.03;100.00
73941;BME280;62294;48.554;10.202;2023-02-01T07:23:23;96557.81;;;1.07;100.00
73941;BME280;62294;48.554;10.202;2023-02-01T07:25:53;96556.00;;;1.07;100.00
73941;BME280;62294;48.554;10.202;2023-02-01T07:28:20;96559.16;;;1.11;100.00
73941;BME280;62294;48.554;10.202;2023-02-01T07:30:47;96567.28;;;1.08;100.00
73941;BME280;62294;48.554;10.202;2023-02-01T07:33:23;96572.41;;;1.09;100.00
73941;BME280;62294;48.554;10.202;2023-02-01T07:35:53;96575.03;;;1.09;100.00
73941;BME280;62294;48.554;10.202;2023-02-01T07:38:19;96572.75;;;1.14;100.00
73941;BME280;62294;48.554;10.202;2023-02-01T07:40:47;96568.22;;;1.16;100.00
73941;BME280;62294;48.554;10.202;2023-02-01T07:43:14;96578.53;;;1.18;100.00
73941;BME280;62294;48.554;10.202;2023-02-01T07:45:41;96578.25;;;1.21;100.00
73941;BME280;62294;48.554;10.202;2023-02-01T07:48:07;96585.28;;;1.20;100.00
73941;BME280;62294;48.554;10.202;2023-02-01T07:50:34;96586.63;;;1.24;100.00
73941;BME280;62294;48.554;10.202;2023-02-01T07:53:01;96590.88;;;1.25;100.00
73941;BME280;62294;48.554;10.202;2023-02-01T07:55:27;96584.81;;;1.25;100.00
73941;BME280;62294;48.554;10.202;2023-02-01T07:57:58;96575.03;;;1.27;100.00
73941;BME280;62294;48.554;10.202;2023-02-01T08:00:25;96578.16;;;1.30;100.00
73941;BME280;62294;48.554;10.202;2023-02-01T08:03:11;96593.13;;;1.38;100.00
73941;BME280;62294;48.554;10.202;2023-02-01T08:05:37;96584.66;;;1.44;100.00
73941;BME280;62294;48.554;10.202;2023-02-01T08:08:04;96580.34;;;1.53;100.00
73941;BME280;62294;48.554;10.202;2023-02-01T08:10:31;96582.34;;;1.59;100.00
73941;BME280;62294;48.554;10.202;2023-02-01T08:12:59;96586.91;;;1.74;100.00
73941;BME280;62294;48.554;10.202;2023-02-01T08:15:29;96590.94;;;1.86;100.00
73941;BME280;62294;48.554;10.202;2023-02-01T08:17:56;96582.72;;;2.07;100.00
73941;BME280;62294;48.554;10.202;2023-02-01T08:20:24;96570.19;;;2.19;100.00
73941;BME280;62294;48.554;10.202;2023-02-01T08:22:52;96572.09;;;2.34;100.00
73941;BME280;62294;48.554;10.202;2023-02-01T08:25:20;96575.09;;;2.47;100.00
73941;BME280;62294;48.554;10.202;2023-02-01T08:27:47;96571.88;;;2.61;100.00
73941;BME280;62294;48.554;10.202;2023-02-01T08:30:13;96582.94;;;2.73;100.00
73941;BME280;62294;48.554;10.202;2023-02-01T08:32:40;96579.78;;;2.69;100.00
73941;BME280;62294;48.554;10.202;2023-02-01T08:35:08;96566.19;;;2.74;100.00
73941;BME280;62294;48.554;10.202;2023-02-01T08:37:34;96560.31;;;2.80;100.00
73941;BME280;62294;48.554;10.202;2023-02-01T08:40:02;96561.28;;;2.71;100.00
73941;BME280;62294;48.554;10.202;2023-02-01T08:42:29;96558.78;;;2.69;100.00
73941;BME280;62294;48.554;10.202;2023-02-01T08:45:14;96562.41;;;2.68;100.00
73941;BME280;62294;48.554;10.202;2023-02-01T08:47:41;96563.06;;;2.62;100.00
73941;BME280;62294;48.554;10.202;2023-02-01T08:50:08;96569.22;;;2.53;100.00
73941;BME280;62294;48.554;10.202;2023-02-01T08:52:35;96586.25;;;2.49;100.00
73941;BME280;62294;48.554;10.202;2023-02-01T08:55:04;96579.69;;;2.53;100.00
73941;BME280;62294;48.554;10.202;2023-02-01T08:57:31;96579.47;;;2.72;100.00
73941;BME280;62294;48.554;10.202;2023-02-01T08:59:58;96580.47;;;2.71;100.00
73941;BME280;62294;48.554;10.202;2023-02-01T09:02:25;96582.28;;;2.79;100.00
73941;BME280;62294;48.554;10.202;2023-02-01T09:04:53;96582.16;;;2.80;100.00
73941;BME280;62294;48.554;10.202;2023-02-01T09:07:20;96590.22;;;2.87;100.00
73941;BME280;62294;48.554;10.202;2023-02-01T09:09:46;96592.19;;;2.93;100.00
73941;BME280;62294;48.554;10.202;2023-02-01T09:12:13;96590.09;;;2.97;100.00
73941;BME280;62294;48.554;10.202;2023-02-01T09:14:39;96586.16;;;3.01;100.00
73941;BME280;62294;48.554;10.202;2023-02-01T09:17:06;96586.16;;;3.01;100.00
73941;BME280;62294;48.554;10.202;2023-02-01T09:19:32;96587.47;;;3.05;100.00
73941;BME280;62294;48.554;10.202;2023-02-01T09:21:59;96597.00;;;3.06;100.00
73941;BME280;62294;48.554;10.202;2023-02-01T09:24:25;96596.66;;;3.09;100.00
73941;BME280;62294;48.554;10.202;2023-02-01T09:26:52;96601.63;;;3.12;100.00
73941;BME280;62294;48.554;10.202;2023-02-01T09:29:19;96611.50;;;3.26;100.00
73941;BME280;62294;48.554;10.202;2023-02-01T09:31:45;96603.81;;;3.40;100.00
73941;BME280;62294;48.554;10.202;2023-02-01T09:34:28;96616.13;;;3.32;100.00
73941;BME280;62294;48.554;10.202;2023-02-01T09:36:55;96612.22;;;3.44;100.00
73941;BME280;62294;48.554;10.202;2023-02-01T09:39:21;96615.31;;;3.47;100.00
73941;BME280;62294;48.554;10.202;2023-02-01T09:44:25;96609.41;;;3.45;100.00
73941;BME280;62294;48.554;10.202;2023-02-01T09:47:10;96609.91;;;3.41;100.00
73941;BME280;62294;48.554;10.202;2023-02-01T09:49:54;96606.25;;;3.34;100.00
73941;BME280;62294;48.554;10.202;2023-02-01T09:52:27;96619.44;;;3.42;100.00
73941;BME280;62294;48.554;10.202;2023-02-01T09:55:10;96624.88;;;3.48;100.00
73941;BME280;62294;48.554;10.202;2023-02-01T09:57:50;96610.59;;;3.59;100.00
73941;BME280;62294;48.554;10.202;2023-02-01T10:00:25;96614.88;;;3.68;100.00
73941;BME280;62294;48.554;10.202;2023-02-01T10:02:54;96608.63;;;3.69;100.00
73941;BME280;62294;48.554;10.202;2023-02-01T10:17:38;96608.09;;;3.49;100.00
73941;BME280;62294;48.554;10.202;2023-02-01T10:23:50;96616.50;;;3.53;100.00
73941;BME280;62294;48.554;10.202;2023-02-01T10:26:33;96608.94;;;3.42;100.00
73941;BME280;62294;48.554;10.202;2023-02-01T10:29:04;96619.44;;;3.42;100.00
73941;BME280;62294;48.554;10.202;2023-02-01T10:31:37;96615.63;;;3.36;100.00
73941;BME280;62294;48.554;10.202;2023-02-01T10:34:27;96597.75;;;3.40;100.00
73941;BME280;62294;48.554;10.202;2023-02-01T10:36:55;96620.88;;;3.36;100.00
73941;BME280;62294;48.554;10.202;2023-02-01T10:39:22;96607.75;;;3.36;100.00
73941;BME280;62294;48.554;10.202;2023-02-01T10:41:49;96615.16;;;3.33;100.00
73941;BME280;62294;48.554;10.202;2023-02-01T10:44:20;96629.25;;;3.32;100.00
73941;BME280;62294;48.554;10.202;2023-02-01T10:46:49;96634.81;;;3.29;100.00
73941;BME280;62294;48.554;10.202;2023-02-01T10:49:54;96635.81;;;3.36;100.00
73941;BME280;62294;48.554;10.202;2023-02-01T10:53:01;96629.91;;;3.34;100.00
73941;BME280;62294;48.554;10.202;2023-02-01T10:55:35;96626.00;;;3.46;100.00
73941;BME280;62294;48.554;10.202;2023-02-01T10:58:14;96629.59;;;3.45;100.00
73941;BME280;62294;48.554;10.202;2023-02-01T11:06:01;96631.94;;;3.64;100.00
73941;BME280;62294;48.554;10.202;2023-02-01T11:08:29;96642.16;;;3.75;100.00
73941;BME280;62294;48.554;10.202;2023-02-01T11:11:02;96643.16;;;3.98;100.00
73941;BME280;62294;48.554;10.202;2023-02-01T11:13:31;96655.94;;;3.77;100.00
73941;BME280;62294;48.554;10.202;2023-02-01T11:16:01;96645.44;;;3.69;100.00
73941;BME280;62294;48.554;10.202;2023-02-01T11:18:31;96635.25;;;3.66;100.00
73941;BME280;62294;48.554;10.202;2023-02-01T11:20:59;96639.31;;;3.60;100.00
73941;BME280;62294;48.554;10.202;2023-02-01T11:23:27;96639.53;;;3.67;100.00
73941;BME280;62294;48.554;10.202;2023-02-01T11:25:58;96638.38;;;3.78;100.00
73941;BME280;62294;48.554;10.202;2023-02-01T11:28:29;96648.06;;;3.69;100.00
73941;BME280;62294;48.554;10.202;2023-02-01T11:31:00;96644.25;;;3.55;100.00
73941;BME280;62294;48.554;10.202;2023-02-01T11:33:34;96633.22;;;3.44;100.00
73941;BME280;62294;48.554;10.202;2023-02-01T11:36:12;96630.94;;;3.57;100.00
73941;BME280;62294;48.554;10.202;2023-02-01T11:39:07;96632.25;;;3.53;100.00
73941;BME280;62294;48.554;10.202;2023-02-01T11:41:32;96623.78;;;3.83;100.00
73941;BME280;62294;48.554;10.202;2023-02-01T11:44:01;96628.69;;;3.86;100.00
73941;BME280;62294;48.554;10.202;2023-02-01T11:46:31;96609.59;;;3.68;100.00
73941;BME280;62294;48.554;10.202;2023-02-01T11:49:19;96608.28;;;3.64;100.00
73941;BME280;62294;48.554;10.202;2023-02-01T11:54:32;96604.84;;;3.55;100.00
73941;BME280;62294;48.554;10.202;2023-02-01T11:57:25;96611.91;;;3.63;100.00
73941;BME280;62294;48.554;10.202;2023-02-01T12:00:25;96611.41;;;3.59;100.00
73941;BME280;62294;48.554;10.202;2023-02-01T12:03:33;96617.66;;;3.75;100.00
73941;BME280;62294;48.554;10.202;2023-02-01T12:11:39;96612.25;;;3.76;100.00
73941;BME280;62294;48.554;10.202;2023-02-01T12:14:19;96603.22;;;3.63;100.00
73941;BME280;62294;48.554;10.202;2023-02-01T12:19:37;96584.31;;;3.59;100.00
73941;BME280;62294;48.554;10.202;2023-02-01T12:46:04;96554.72;;;3.65;100.00
73941;BME280;62294;48.554;10.202;2023-02-01T12:48:41;96550.78;;;3.61;100.00
73941;BME280;62294;48.554;10.202;2023-02-01T12:51:14;96546.84;;;3.65;100.00
73941;BME280;62294;48.554;10.202;2023-02-01T12:56:37;96544.19;;;4.21;100.00
73941;BME280;62294;48.554;10.202;2023-02-01T12:59:17;96543.72;;;3.86;100.00
73941;BME280;62294;48.554;10.202;2023-02-01T13:01:56;96552.09;;;3.97;100.00
73941;BME280;62294;48.554;10.202;2023-02-01T13:04:33;96545.22;;;3.80;100.00
73941;BME280;62294;48.554;10.202;2023-02-01T13:07:14;96560.00;;;3.73;100.00
73941;BME280;62294;48.554;10.202;2023-02-01T13:09:45;96548.16;;;3.77;100.00
73941;BME280;62294;48.554;10.202;2023-02-01T13:12:21;96545.88;;;3.74;100.00
73941;BME280;62294;48.554;10.202;2023-02-01T13:14:54;96547.84;;;3.72;100.00
73941;BME280;62294;48.554;10.202;2023-02-01T13:17:27;96544.22;;;3.65;100.00
73941;BME280;62294;48.554;10.202;2023-02-01T13:19:59;96543.56;;;3.79;100.00
73941;BME280;62294;48.554;10.202;2023-02-01T13:22:41;96547.50;;;3.75;100.00
73941;BME280;62294;48.554;10.202;2023-02-01T13:27:36;96547.84;;;3.64;100.00
73941;BME280;62294;48.554;10.202;2023-02-01T13:30:18;96555.22;;;3.77;100.00
73941;BME280;62294;48.554;10.202;2023-02-01T13:39:02;96546.34;;;3.62;100.00
73941;BME280;62294;48.554;10.202;2023-02-01T13:41:49;96553.09;;;3.64;100.00
73941;BME280;62294;48.554;10.202;2023-02-01T13:44:28;96552.44;;;3.70;100.00
73941;BME280;62294;48.554;10.202;2023-02-01T13:47:02;96547.81;;;3.56;100.00
73941;BME280;62294;48.554;10.202;2023-02-01T13:49:37;96539.28;;;3.46;100.00
73941;BME280;62294;48.554;10.202;2023-02-01T13:52:05;96535.34;;;3.42;100.00
73941;BME280;62294;48.554;10.202;2023-02-01T13:54:39;96546.88;;;3.49;100.00
73941;BME280;62294;48.554;10.202;2023-02-01T13:57:30;96537.16;;;3.49;100.00
73941;BME280;62294;48.554;10.202;2023-02-01T14:00:30;96537.31;;;3.48;100.00
73941;BME280;62294;48.554;10.202;2023-02-01T14:13:53;96540.78;;;3.48;100.00
73941;BME280;62294;48.554;10.202;2023-02-01T14:16:20;96531.91;;;3.57;100.00
73941;BME280;62294;48.554;10.202;2023-02-01T14:18:58;96527.78;;;3.47;100.00
73941;BME280;62294;48.554;10.202;2023-02-01T14:21:29;96531.41;;;3.54;100.00
73941;BME280;62294;48.554;10.202;2023-02-01T14:26:48;96523.19;;;3.41;100.00
73941;BME280;62294;48.554;10.202;2023-02-01T15:09:01;96551.13;;;3.42;100.00
73941;BME280;62294;48.554;10.202;2023-02-01T15:11:29;96552.59;;;3.52;100.00
73941;BME280;62294;48.554;10.202;2023-02-01T15:13:55;96541.75;;;3.39;100.00
73941;BME280;62294;48.554;10.202;2023-02-01T15:16:25;96535.66;;;3.31;100.00
73941;BME280;62294;48.554;10.202;2023-02-01T15:19:07;96535.81;;;3.29;100.00
73941;BME280;62294;48.554;10.202;2023-02-01T15:21:44;96547.31;;;3.28;100.00
73941;BME280;62294;48.554;10.202;2023-02-01T15:24:23;96552.72;;;3.27;100.00
73941;BME280;62294;48.554;10.202;2023-02-01T15:26:52;96551.09;;;3.26;100.00
73941;BME280;62294;48.554;10.202;2023-02-01T15:29:21;96550.25;;;3.17;100.00
73941;BME280;62294;48.554;10.202;2023-02-01T15:31:50;96554.25;;;3.37;100.00
73941;BME280;62294;48.554;10.202;2023-02-01T15:34:18;96545.47;;;3.13;100.00
73941;BME280;62294;48.554;10.202;2023-02-01T15:36:46;96552.84;;;3.09;100.00
73941;BME280;62294;48.554;10.202;2023-02-01T15:39:28;96546.44;;;3.04;100.00